Time;durP1;ratioP1;P1;durP2;ratioP2;P2;SDS_P1;SDS_P2;PMS_P1;PMS_P2;Temp;Humidity;BMP_temperature;BMP_pressure;BME280_temperature;BME280_humidity;BME280_pressure;Samples;Min_cycle;Max_cycle;Signal;HPM_P1;HPM_P2
2022/07/15 00:00:18;;;;;;;;;;;;;;;-142.75;100.00;77566.47;5013011;28;19920;-70
2022/07/15 00:02:43;;;;;;;;;;;;;;;-142.75;100.00;77568.44;5012983;28;19921;-70
2022/07/15 00:05:08;;;;;;;;;;;;;;;-142.75;100.00;77578.28;5012917;28;19921;-71
2022/07/15 00:07:34;;;;;;;;;;;;;;;-142.75;100.00;77582.22;5012909;28;19953;-71
2022/07/15 00:10:15;;;;;;;;;;;;;;;-142.75;100.00;77588.13;5012644;28;19914;-71
2022/07/15 00:12:41;;;;;;;;;;;;;;;-142.75;100.00;77584.19;5012940;28;19913;-71
2022/07/15 00:15:07;;;;;;;;;;;;;;;-142.75;100.00;77584.19;5012700;28;19924;-71
2022/07/15 00:17:33;;;;;;;;;;;;;;;-142.75;100.00;77590.09;5011488;28;20287;-71
2022/07/15 00:19:58;;;;;;;;;;;;;;;-142.75;100.00;77584.19;5012484;28;19913;-70
2022/07/15 00:22:23;;;;;;;;;;;;;;;-142.75;100.00;77576.31;5012763;28;19917;-71
2022/07/15 00:24:48;;;;;;;;;;;;;;;-142.75;100.00;77580.25;5011457;28;20379;-71
2022/07/15 00:27:14;;;;;;;;;;;;;;;-142.75;100.00;77580.25;5012699;28;20383;-70
2022/07/15 00:29:39;;;;;;;;;;;;;;;-142.75;100.00;77580.25;5012339;28;19913;-71
2022/07/15 00:32:04;;;;;;;;;;;;;;;-142.75;100.00;77580.25;5012489;28;20333;-71
2022/07/15 00:34:29;;;;;;;;;;;;;;;-142.75;100.00;77582.22;5012510;28;19918;-71
2022/07/15 00:36:55;;;;;;;;;;;;;;;-142.75;100.00;77582.22;5010710;28;19914;-71
2022/07/15 00:39:20;;;;;;;;;;;;;;;-142.75;100.00;77588.13;5012094;28;20394;-72
2022/07/15 00:41:47;;;;;;;;;;;;;;;-142.75;100.00;77596.00;5011876;28;20202;-71
2022/07/15 00:44:12;;;;;;;;;;;;;;;-142.75;100.00;77588.13;5012487;28;20358;-71
2022/07/15 00:46:38;;;;;;;;;;;;;;;-142.75;100.00;77588.13;5010920;28;19944;-71
2022/07/15 00:49:04;;;;;;;;;;;;;;;-142.75;100.00;77592.06;5012236;28;19985;-71
2022/07/15 00:51:36;;;;;;;;;;;;;;;-142.75;100.00;77590.09;5012521;28;19921;-70
2022/07/15 00:54:02;;;;;;;;;;;;;;;-142.75;100.00;77594.03;5012359;28;19921;-71
2022/07/15 00:56:28;;;;;;;;;;;;;;;-142.75;100.00;77592.06;5012402;28;19917;-70
2022/07/15 00:58:53;;;;;;;;;;;;;;;-142.75;100.00;77586.16;5011972;28;20318;-71
2022/07/15 01:01:19;;;;;;;;;;;;;;;-142.75;100.00;77597.97;5012282;28;19921;-71
2022/07/15 01:03:45;;;;;;;;;;;;;;;-142.75;100.00;77596.00;5012494;28;19913;-71
2022/07/15 01:06:11;;;;;;;;;;;;;;;-142.75;100.00;77605.84;5012235;28;19917;-71
2022/07/15 01:08:36;;;;;;;;;;;;;;;-142.75;100.00;77601.91;5012006;28;19977;-71
2022/07/15 01:11:01;;;;;;;;;;;;;;;-142.75;100.00;77609.78;5010983;28;19913;-71
2022/07/15 01:13:27;;;;;;;;;;;;;;;-142.75;100.00;77607.81;5012040;28;20272;-71
2022/07/15 01:15:52;;;;;;;;;;;;;;;-142.75;100.00;77609.78;5012118;28;19940;-71
2022/07/15 01:18:17;;;;;;;;;;;;;;;-142.75;100.00;77609.78;5010613;28;20449;-71
2022/07/15 01:20:43;;;;;;;;;;;;;;;-142.75;100.00;77613.72;5010900;28;20371;-71
2022/07/15 01:23:08;;;;;;;;;;;;;;;-142.75;100.00;77621.59;5012192;28;19941;-71
2022/07/15 01:25:33;;;;;;;;;;;;;;;-142.75;100.00;77625.53;5012066;28;19917;-70
2022/07/15 01:27:59;;;;;;;;;;;;;;;-142.75;100.00;77625.53;5011786;28;19913;-70
2022/07/15 01:30:24;;;;;;;;;;;;;;;-142.75;100.00;77631.44;5012039;28;19917;-70
2022/07/15 01:32:50;;;;;;;;;;;;;;;-142.75;100.00;77639.31;5010801;28;19906;-71
2022/07/15 01:35:15;;;;;;;;;;;;;;;-142.75;100.00;77643.25;5011920;28;19980;-70
2022/07/15 01:37:40;;;;;;;;;;;;;;;-142.75;100.00;77643.25;5010709;28;19980;-71
2022/07/15 01:40:07;;;;;;;;;;;;;;;-142.75;100.00;77649.16;5011750;28;20016;-71
2022/07/15 01:42:32;;;;;;;;;;;;;;;-142.75;100.00;77655.06;5010648;28;19956;-71
2022/07/15 01:44:57;;;;;;;;;;;;;;;-142.75;100.00;77653.09;5010598;28;20332;-71
2022/07/15 01:47:22;;;;;;;;;;;;;;;-142.75;100.00;77657.03;5011757;28;19996;-71
2022/07/15 01:49:48;;;;;;;;;;;;;;;-142.75;100.00;77662.94;5012898;28;20299;-71
2022/07/15 01:52:13;;;;;;;;;;;;;;;-142.75;100.00;77662.94;5015416;28;19956;-71
2022/07/15 01:54:38;;;;;;;;;;;;;;;-142.75;100.00;77668.84;5015350;28;19918;-71
2022/07/15 01:57:04;;;;;;;;;;;;;;;-142.75;100.00;77668.84;5015295;28;20399;-71
2022/07/15 01:59:29;;;;;;;;;;;;;;;-142.75;100.00;77660.97;5013660;28;19983;-71
2022/07/15 02:01:55;;;;;;;;;;;;;;;-142.75;100.00;77657.03;5015377;28;19925;-71
2022/07/15 02:04:21;;;;;;;;;;;;;;;-142.75;100.00;77657.03;5015188;28;19920;-71
2022/07/15 02:06:47;;;;;;;;;;;;;;;-142.75;100.00;77660.97;5015133;28;19913;-71
2022/07/15 02:09:12;;;;;;;;;;;;;;;-142.75;100.00;77666.88;5014880;28;19960;-71
2022/07/15 02:11:37;;;;;;;;;;;;;;;-142.75;100.00;77668.84;5013795;28;19920;-71
2022/07/15 02:14:03;;;;;;;;;;;;;;;-142.75;100.00;77676.72;5014884;28;19918;-70
2022/07/15 02:16:29;;;;;;;;;;;;;;;-142.75;100.00;77684.59;5013654;28;19913;-70
2022/07/15 02:18:54;;;;;;;;;;;;;;;-142.75;100.00;77680.66;5014705;28;20083;-71
2022/07/15 02:21:19;;;;;;;;;;;;;;;-142.75;100.00;77682.63;5014946;28;19918;-71
2022/07/15 02:23:45;;;;;;;;;;;;;;;-142.75;100.00;77682.63;5014892;28;19999;-71
2022/07/15 02:26:10;;;;;;;;;;;;;;;-142.75;100.00;77686.56;5014667;28;20406;-71
2022/07/15 02:28:35;;;;;;;;;;;;;;;-142.75;100.00;77688.53;5014384;28;19913;-70
2022/07/15 02:31:00;;;;;;;;;;;;;;;-142.75;100.00;77688.53;5014714;28;19917;-70
2022/07/15 02:33:26;;;;;;;;;;;;;;;-142.75;100.00;77690.50;5014719;28;19941;-71
2022/07/15 02:35:51;;;;;;;;;;;;;;;-142.75;100.00;77692.47;5014659;28;19913;-71
2022/07/15 02:38:17;;;;;;;;;;;;;;;-142.75;100.00;77692.47;5013130;28;19952;-71
2022/07/15 02:40:42;;;;;;;;;;;;;;;-142.75;100.00;77696.41;5014522;28;20329;-71
2022/07/15 02:43:08;;;;;;;;;;;;;;;-142.75;100.00;77692.47;5014415;28;20003;-71
2022/07/15 02:45:34;;;;;;;;;;;;;;;-142.75;100.00;77692.47;5013025;28;19917;-71
2022/07/15 02:48:00;;;;;;;;;;;;;;;-142.75;100.00;77690.50;5014184;28;19913;-70
2022/07/15 02:50:25;;;;;;;;;;;;;;;-142.75;100.00;77688.53;5014398;28;20390;-71
2022/07/15 02:52:50;;;;;;;;;;;;;;;-142.75;100.00;77694.44;5014718;28;19913;-71
2022/07/15 02:55:16;;;;;;;;;;;;;;;-142.75;100.00;77688.53;5014004;28;20008;-71
2022/07/15 02:57:42;;;;;;;;;;;;;;;-142.75;100.00;77692.47;5014007;28;19913;-68
2022/07/15 03:00:09;;;;;;;;;;;;;;;-142.75;100.00;77696.41;5012036;28;19917;-71
2022/07/15 03:02:34;;;;;;;;;;;;;;;-142.75;100.00;77698.38;5012885;28;19914;-70
2022/07/15 03:05:00;;;;;;;;;;;;;;;-142.75;100.00;77700.34;5029333;28;20000;-72
2022/07/15 03:07:25;;;;;;;;;;;;;;;-142.75;100.00;77700.34;5014010;28;19920;-71
2022/07/15 03:09:50;;;;;;;;;;;;;;;-142.75;100.00;77702.31;5013721;28;19975;-71
2022/07/15 03:12:16;;;;;;;;;;;;;;;-142.75;100.00;77708.22;5013863;28;20425;-71
2022/07/15 03:14:41;;;;;;;;;;;;;;;-142.75;100.00;77696.41;5013891;28;19925;-71
2022/07/15 03:17:07;;;;;;;;;;;;;;;-142.75;100.00;77706.25;5013890;28;19914;-70
2022/07/15 03:19:32;;;;;;;;;;;;;;;-142.75;100.00;77710.19;5012656;28;19998;-71
2022/07/15 03:21:57;;;;;;;;;;;;;;;-142.75;100.00;77722.00;5013799;28;19918;-71
2022/07/15 03:24:22;;;;;;;;;;;;;;;-142.75;100.00;77718.06;5013718;28;19913;-69
2022/07/15 03:26:47;;;;;;;;;;;;;;;-142.75;100.00;77712.16;5012358;28;19921;-71
2022/07/15 03:29:15;;;;;;;;;;;;;;;-142.75;100.00;77716.09;5013411;28;19921;-71
2022/07/15 03:31:40;;;;;;;;;;;;;;;-142.75;100.00;77718.06;5024082;23;20036;-68
2022/07/15 03:34:06;;;;;;;;;;;;;;;-142.75;100.00;77716.09;4970688;28;20013;-69
2022/07/15 03:36:31;;;;;;;;;;;;;;;-142.75;100.00;77716.09;4969606;28;19945;-69
2022/07/15 03:38:56;;;;;;;;;;;;;;;-142.75;100.00;77712.16;4971246;28;19968;-69
2022/07/15 03:41:21;;;;;;;;;;;;;;;-142.75;100.00;77714.13;4970222;28;19920;-69
2022/07/15 03:43:47;;;;;;;;;;;;;;;-142.75;100.00;77723.97;4971399;28;19933;-69
2022/07/15 03:46:15;;;;;;;;;;;;;;;-142.75;100.00;77729.88;4971500;28;19957;-69
2022/07/15 03:48:40;;;;;;;;;;;;;;;-142.75;100.00;77725.97;4971179;28;19919;-69
2022/07/15 03:51:06;;;;;;;;;;;;;;;-142.75;100.00;77725.97;4971416;28;19966;-69
2022/07/15 03:53:31;;;;;;;;;;;;;;;-142.75;100.00;77731.88;4971210;28;19939;-69
2022/07/15 03:55:56;;;;;;;;;;;;;;;-142.75;100.00;77731.88;4971656;28;20277;-69
2022/07/15 03:58:21;;;;;;;;;;;;;;;-142.75;100.00;77735.81;4970904;28;19921;-68
2022/07/15 04:00:46;;;;;;;;;;;;;;;-142.75;100.00;77735.81;4971233;28;19921;-69
2022/07/15 04:03:12;;;;;;;;;;;;;;;-142.75;100.00;77731.88;4971140;28;19914;-69
2022/07/15 04:05:38;;;;;;;;;;;;;;;-142.75;100.00;77731.88;4969963;28;20355;-69
2022/07/15 04:08:03;;;;;;;;;;;;;;;-142.75;100.00;77725.97;4970850;28;19997;-69
2022/07/15 04:10:28;;;;;;;;;;;;;;;-142.75;100.00;77731.88;4971128;28;20005;-69
2022/07/15 04:12:54;;;;;;;;;;;;;;;-142.75;100.00;77735.81;4970947;28;20012;-69
2022/07/15 04:15:19;;;;;;;;;;;;;;;-142.75;100.00;77729.88;4971005;28;20013;-69
2022/07/15 04:17:44;;;;;;;;;;;;;;;-142.75;100.00;77727.94;4970862;28;19921;-68
2022/07/15 04:20:12;;;;;;;;;;;;;;;-142.75;100.00;77735.81;4970904;28;19963;-69
2022/07/15 04:22:43;;;;;;;;;;;;;;;-142.75;100.00;77731.88;4970902;28;19986;-69
2022/07/15 04:25:09;;;;;;;;;;;;;;;-142.75;100.00;77733.84;4970926;28;19915;-69
2022/07/15 04:27:34;;;;;;;;;;;;;;;-142.75;100.00;77731.88;4970847;28;19956;-69
2022/07/15 04:30:00;;;;;;;;;;;;;;;-142.75;100.00;77722.00;4970663;28;20383;-69
2022/07/15 04:32:26;;;;;;;;;;;;;;;-142.75;100.00;77723.97;4969411;28;19957;-69
2022/07/15 04:34:52;;;;;;;;;;;;;;;-142.75;100.00;77720.03;4970740;28;20442;-69
2022/07/15 04:37:17;;;;;;;;;;;;;;;-142.75;100.00;77712.16;4969492;28;19961;-69
2022/07/15 04:39:42;;;;;;;;;;;;;;;-142.75;100.00;77708.22;4970460;28;19914;-70
2022/07/15 04:42:07;;;;;;;;;;;;;;;-142.75;100.00;77696.41;4969356;28;19948;-69
2022/07/15 04:44:32;;;;;;;;;;;;;;;-142.75;100.00;77688.53;4970682;28;20005;-69
2022/07/15 04:46:58;;;;;;;;;;;;;;;-142.75;100.00;77674.75;4970658;28;19921;-69
2022/07/15 04:52:08;;;;;;;;;;;;;;;-142.75;100.00;77649.16;4970515;28;19940;-69
2022/07/15 04:54:33;;;;;;;;;;;;;;;-142.75;100.00;77637.34;4969229;28;19923;-70
2022/07/15 04:56:58;;;;;;;;;;;;;;;-142.75;100.00;77625.53;4970555;28;19914;-69
2022/07/15 04:59:23;;;;;;;;;;;;;;;-142.75;100.00;77611.75;4970487;28;20032;-71
2022/07/15 05:01:49;;;;;;;;;;;;;;;-142.75;100.00;77601.91;4970579;28;19949;-70
2022/07/15 05:04:14;;;;;;;;;;;;;;;-142.75;100.00;77588.13;4970420;28;20397;-70
2022/07/15 05:06:39;;;;;;;;;;;;;;;-142.75;100.00;77570.41;4970407;28;20005;-70
2022/07/15 05:09:04;;;;;;;;;;;;;;;-142.75;100.00;77554.66;4969976;28;19914;-69
2022/07/15 05:11:29;;;;;;;;;;;;;;;-142.75;100.00;77546.78;4970339;28;19918;-70
2022/07/15 05:13:54;;;;;;;;;;;;;;;-142.75;100.00;77533.00;4969035;28;19922;-70
2022/07/15 05:16:20;;;;;;;;;;;;;;;-142.75;100.00;77521.19;4970307;28;19925;-70
2022/07/15 05:18:45;;;;;;;;;;;;;;;-142.75;100.00;77511.34;4969941;28;20360;-69
2022/07/15 05:21:10;;;;;;;;;;;;;;;-142.75;100.00;77499.53;4970143;28;19925;-69
2022/07/15 05:23:35;;;;;;;;;;;;;;;-142.75;100.00;77475.91;4969631;28;19922;-70
2022/07/15 05:26:01;;;;;;;;;;;;;;;-142.75;100.00;77468.03;4973631;28;20432;-71
2022/07/15 05:28:27;;;;;;;;;;;;;;;-142.75;100.00;77454.25;4973283;28;19921;-69
2022/07/15 05:30:52;;;;;;;;;;;;;;;-142.75;100.00;77436.50;4970402;28;19915;-70
2022/07/15 05:33:17;;;;;;;;;;;;;;;-142.75;100.00;77418.78;4973295;28;19922;-70
2022/07/15 05:35:42;;;;;;;;;;;;;;;-142.75;100.00;77405.00;4973488;28;19914;-70
2022/07/15 05:38:08;;;;;;;;;;;;;;;-142.75;100.00;77385.31;4973132;28;19914;-69
2022/07/15 05:40:33;;;;;;;;;;;;;;;-142.75;100.00;77369.56;4973373;28;20486;-70
2022/07/15 05:42:58;;;;;;;;;;;;;;;-142.75;100.00;77353.81;4973325;28;19914;-71
2022/07/15 05:45:24;;;;;;;;;;;;;;;-142.75;100.00;77340.03;4973336;28;19914;-71
2022/07/15 05:47:50;;;;;;;;;;;;;;;-142.75;100.00;77334.13;4971874;28;19914;-70
2022/07/15 05:50:15;;;;;;;;;;;;;;;-142.75;100.00;77314.44;4973123;28;19925;-70
2022/07/15 05:52:41;;;;;;;;;;;;;;;-142.75;100.00;77306.56;4971881;28;20463;-70
2022/07/15 05:55:06;;;;;;;;;;;;;;;-142.75;100.00;77294.75;4973101;28;19918;-70
2022/07/15 05:57:32;;;;;;;;;;;;;;;-142.75;100.00;77284.91;4973135;28;20304;-70
2022/07/15 05:59:57;;;;;;;;;;;;;;;-142.75;100.00;77267.19;4973044;28;19918;-70
2022/07/15 06:02:22;;;;;;;;;;;;;;;-142.75;100.00;77243.56;4973057;28;19918;-70
2022/07/15 06:04:47;;;;;;;;;;;;;;;-142.75;100.00;77235.69;4973018;28;19914;-70
2022/07/15 06:07:12;;;;;;;;;;;;;;;-142.75;100.00;77219.94;4972968;28;19921;-70
2022/07/15 06:09:38;;;;;;;;;;;;;;;-142.75;100.00;77208.13;4971469;28;20036;-69
2022/07/15 06:12:03;;;;;;;;;;;;;;;-142.75;100.00;77204.19;4972029;28;19918;-70
2022/07/15 06:14:28;;;;;;;;;;;;;;;-142.75;100.00;77200.25;4971942;28;19926;-70
2022/07/15 06:16:53;;;;;;;;;;;;;;;-142.75;100.00;77188.44;4971975;28;20399;-70
2022/07/15 06:19:18;;;;;;;;;;;;;;;-142.75;100.00;77174.66;4971626;28;19924;-70
2022/07/15 06:21:44;;;;;;;;;;;;;;;-142.75;100.00;77158.91;4970526;28;20295;-70
2022/07/15 06:24:09;;;;;;;;;;;;;;;-142.75;100.00;77154.97;4971724;28;19914;-70
2022/07/15 06:26:34;;;;;;;;;;;;;;;-142.75;100.00;77149.06;4970667;28;19914;-70
2022/07/15 06:28:59;;;;;;;;;;;;;;;-142.75;100.00;77123.47;4970331;28;20372;-70
2022/07/15 06:31:25;;;;;;;;;;;;;;;-142.75;100.00;77103.78;4971530;28;19941;-71
2022/07/15 06:33:50;;;;;;;;;;;;;;;-142.75;100.00;77097.88;4971741;28;19922;-71
2022/07/15 06:36:15;;;;;;;;;;;;;;;-142.75;100.00;77088.03;4969406;28;20372;-70
2022/07/15 06:38:40;;;;;;;;;;;;;;;-142.75;100.00;77068.34;4971037;28;20407;-70
2022/07/15 06:41:05;;;;;;;;;;;;;;;-142.75;100.00;77054.56;4970257;28;19914;-70
2022/07/15 06:43:31;;;;;;;;;;;;;;;-142.75;100.00;77030.94;4971068;28;20009;-71
2022/07/15 06:45:56;;;;;;;;;;;;;;;-142.75;100.00;77027.00;4960711;28;19915;-69
2022/07/15 06:48:21;;;;;;;;;;;;;;;-142.75;100.00;77011.25;4960976;28;20390;-70
2022/07/15 06:50:46;;;;;;;;;;;;;;;-142.75;100.00;77003.38;4954671;28;19914;-69
2022/07/15 06:53:11;;;;;;;;;;;;;;;-142.75;100.00;76995.50;4951769;28;20446;-70
2022/07/15 06:55:37;;;;;;;;;;;;;;;-142.75;100.00;77015.19;4952096;29;20021;-70
2022/07/15 06:58:03;;;;;;;;;;;;;;;-142.75;100.00;77007.31;4950426;28;19915;-69
2022/07/15 07:00:28;;;;;;;;;;;;;;;-142.75;100.00;77011.25;4952151;28;19946;-69
2022/07/15 07:02:53;;;;;;;;;;;;;;;-142.75;100.00;77017.16;4952039;29;20000;-69
2022/07/15 07:05:19;;;;;;;;;;;;;;;-142.75;100.00;77023.06;4954430;28;19918;-70
2022/07/15 07:07:44;;;;;;;;;;;;;;;-142.75;100.00;77032.91;4970435;28;19956;-70
2022/07/15 07:10:09;;;;;;;;;;;;;;;-142.75;100.00;77044.72;4970692;28;20406;-71
2022/07/15 07:12:35;;;;;;;;;;;;;;;-142.75;100.00;77048.66;4971862;28;19921;-71
2022/07/15 07:15:02;;;;;;;;;;;;;;;-142.75;100.00;77042.75;4970616;28;19928;-71
2022/07/15 07:17:27;;;;;;;;;;;;;;;-142.75;100.00;77034.88;4971897;28;20330;-68
2022/07/15 07:19:52;;;;;;;;;;;;;;;-142.75;100.00;77023.06;4971602;28;19914;-69
2022/07/15 07:22:18;;;;;;;;;;;;;;;-142.75;100.00;77032.91;4971676;28;19918;-69
2022/07/15 07:24:44;;;;;;;;;;;;;;;-142.75;100.00;77005.34;4971868;28;19914;-69
2022/07/15 07:27:10;;;;;;;;;;;;;;;-142.75;100.00;76975.81;4971827;28;19920;-69
2022/07/15 07:29:35;;;;;;;;;;;;;;;-142.75;100.00;76934.47;4970275;28;20008;-69
2022/07/15 07:32:00;;;;;;;;;;;;;;;-142.75;100.00;76902.97;4971582;28;20374;-70
2022/07/15 07:34:25;;;;;;;;;;;;;;;-142.75;100.00;76883.28;4970353;28;20464;-70
2022/07/15 07:36:50;;;;;;;;;;;;;;;-142.75;100.00;76897.06;4971640;28;20350;-70
2022/07/15 07:39:16;;;;;;;;;;;;;;;-142.75;100.00;76883.28;4971344;28;20700;-71
2022/07/15 07:41:41;;;;;;;;;;;;;;;-142.75;100.00;76863.59;4970192;28;19914;-69
2022/07/15 07:44:07;;;;;;;;;;;;;;;-142.75;100.00;76853.75;4970333;28;19914;-69
2022/07/15 07:46:32;;;;;;;;;;;;;;;-142.75;100.00;76839.97;4970556;28;19921;-69
2022/07/15 07:48:57;;;;;;;;;;;;;;;-142.75;100.00;76802.56;4970779;28;19914;-70
2022/07/15 07:51:23;;;;;;;;;;;;;;;-142.75;94.80;76802.56;4971426;28;19988;-69
2022/07/15 07:53:48;;;;;;;;;;;;;;;-142.75;91.49;76780.94;4971314;28;20413;-69
2022/07/15 07:56:14;;;;;;;;;;;;;;;-142.75;95.95;76745.50;4971509;28;19914;-69
2022/07/15 07:58:39;;;;;;;;;;;;;;;-142.75;92.76;76739.59;4971263;28;20425;-67
2022/07/15 08:01:04;;;;;;;;;;;;;;;-142.75;87.85;76729.75;4971316;28;19914;-67
2022/07/15 08:03:29;;;;;;;;;;;;;;;-142.75;85.86;76712.03;4970030;28;19952;-67
2022/07/15 08:05:55;;;;;;;;;;;;;;;-142.75;87.75;76700.22;4971259;28;19914;-67
2022/07/15 08:08:20;;;;;;;;;;;;;;;-142.75;86.69;76676.59;4970921;28;19954;-67
2022/07/15 08:10:48;;;;;;;;;;;;;;;-142.75;91.73;76639.19;4971185;28;19929;-67
2022/07/15 08:13:13;;;;;;;;;;;;;;;-142.75;86.95;76619.50;4971117;28;19914;-67
2022/07/15 08:15:39;;;;;;;;;;;;;;;-142.75;82.20;76633.28;4971064;28;20509;-66
2022/07/15 08:18:04;;;;;;;;;;;;;;;-142.75;80.65;76639.19;4970775;28;19941;-66
2022/07/15 08:20:31;;;;;;;;;;;;;;;-142.75;82.18;76611.63;4970982;28;20024;-67
2022/07/15 08:22:59;;;;;;;;;;;;;;;-142.75;86.72;76615.56;4969580;28;19961;-67
2022/07/15 08:25:29;;;;;;;;;;;;;;;-142.75;87.91;76586.03;4969610;28;19914;-67
2022/07/15 08:27:55;;;;;;;;;;;;;;;-142.75;84.56;76580.13;4970571;28;19922;-66
2022/07/15 08:30:20;;;;;;;;;;;;;;;-142.75;79.54;76554.53;4970931;28;19914;-67
2022/07/15 08:32:45;;;;;;;;;;;;;;;-142.75;80.38;76527.00;4969395;28;20387;-67
2022/07/15 08:35:10;;;;;;;;;;;;;;;-142.75;83.10;76558.47;4969468;28;19925;-67
2022/07/15 08:37:36;;;;;;;;;;;;;;;-142.75;86.28;76595.88;4970779;28;20003;-67
2022/07/15 08:40:02;;;;;;;;;;;;;;;-142.75;87.91;76629.34;4970577;28;20001;-67
2022/07/15 08:42:27;;;;;;;;;;;;;;;-142.75;88.75;76674.63;4970583;28;19956;-67
2022/07/15 08:44:53;;;;;;;;;;;;;;;-142.75;93.10;76696.28;4970761;28;19915;-67
2022/07/15 08:47:19;;;;;;;;;;;;;;;-142.75;91.61;76714.00;4970711;28;20352;-67
2022/07/15 08:49:47;;;;;;;;;;;;;;;-142.75;85.63;76668.72;4970258;28;19972;-67
2022/07/15 08:52:13;;;;;;;;;;;;;;;-142.75;81.91;76649.03;4970801;28;20295;-67
2022/07/15 08:54:38;;;;;;;;;;;;;;;-142.75;77.33;76682.50;4970477;28;19977;-67
2022/07/15 08:57:04;;;;;;;;;;;;;;;-142.75;79.05;76710.06;4969282;28;19914;-66
2022/07/15 08:59:29;;;;;;;;;;;;;;;-142.75;84.41;76680.53;4971072;28;19921;-67
2022/07/15 09:01:54;;;;;;;;;;;;;;;-142.75;89.47;76658.88;4972694;28;20417;-67
2022/07/15 09:04:19;;;;;;;;;;;;;;;-142.75;84.77;76654.94;4973907;28;19918;-67
2022/07/15 09:06:46;;;;;;;;;;;;;;;-142.75;82.76;76686.44;4972670;28;19921;-67
2022/07/15 09:09:18;;;;;;;;;;;;;;;-142.75;86.40;76729.75;4972366;28;20008;-67
2022/07/15 09:11:43;;;;;;;;;;;;;;;-142.75;86.61;76717.94;4973824;28;19967;-67
2022/07/15 09:14:13;;;;;;;;;;;;;;;-142.75;84.31;76654.94;4973753;28;20546;-67
2022/07/15 09:16:38;;;;;;;;;;;;;;;-142.75;83.02;76651.00;4973729;28;19921;-66
2022/07/15 09:19:03;;;;;;;;;;;;;;;-142.75;81.28;76656.91;4973545;28;19915;-67
2022/07/15 09:21:28;;;;;;;;;;;;;;;-142.75;79.46;76645.09;4972358;28;19914;-67
2022/07/15 09:23:54;;;;;;;;;;;;;;;-142.75;76.92;76637.22;4973717;28;19921;-67
2022/07/15 09:26:30;;;;;;;;;;;;;;;-142.75;81.54;76613.59;4973522;28;19914;-66
2022/07/15 09:28:56;;;;;;;;;;;;;;;-142.75;84.96;76645.09;4971986;28;19921;-66
2022/07/15 09:33:58;;;;;;;;;;;;;;;-142.75;89.88;76696.28;5055228;22;20329;-70
2022/07/15 09:36:25;;;;;;;;;;;;;;;-142.75;91.71;76654.94;5034828;28;19921;-71
2022/07/15 09:38:52;;;;;;;;;;;;;;;-142.75;87.53;76633.28;5017471;28;19924;-70
2022/07/15 09:41:26;;;;;;;;;;;;;;;-142.75;85.85;76566.34;5017588;28;20428;-69
2022/07/15 09:43:52;;;;;;;;;;;;;;;-142.75;80.53;76515.19;5035200;28;20566;-69
2022/07/15 09:46:18;;;;;;;;;;;;;;;-142.75;77.03;76493.53;5035188;28;19913;-71
2022/07/15 09:48:45;;;;;;;;;;;;;;;-142.75;76.00;76525.03;5016916;28;19956;-71
2022/07/15 09:51:11;;;;;;;;;;;;;;;-142.75;77.09;76566.34;5035370;28;19917;-70
2022/07/15 09:53:37;;;;;;;;;;;;;;;-142.75;84.69;76580.13;5035154;28;19913;-70
2022/07/15 09:56:03;;;;;;;;;;;;;;;-142.75;84.63;76593.91;5035188;28;19913;-69
2022/07/15 09:58:28;;;;;;;;;;;;;;;-142.75;85.90;76621.47;5034965;28;20361;-71
2022/07/15 10:00:54;;;;;;;;;;;;;;;-142.75;89.00;76633.28;5017320;28;19943;-71
2022/07/15 10:03:22;;;;;;;;;;;;;;;-142.75;87.64;76649.03;5035639;28;19969;-71
2022/07/15 10:05:50;;;;;;;;;;;;;;;-142.75;88.03;76674.63;5035298;28;19920;-71
2022/07/15 10:08:16;;;;;;;;;;;;;;;-142.75;88.79;76696.28;5034850;28;19913;-71
2022/07/15 10:10:41;;;;;;;;;;;;;;;-142.75;86.50;76696.28;5017197;28;19939;-70
2022/07/15 10:13:25;;;;;;;;;;;;;;;-142.75;87.69;76702.19;5017163;28;19919;-71
2022/07/15 10:15:53;;;;;;;;;;;;;;;-142.75;88.33;76662.81;5034830;28;20386;-70
2022/07/15 10:18:39;;;;;;;;;;;;;;;-142.75;82.71;76619.50;5034625;28;20341;-71
2022/07/15 10:21:22;;;;;;;;;;;;;;;-142.75;83.62;76544.69;5034822;28;20397;-71
2022/07/15 10:23:56;;;;;;;;;;;;;;;-142.75;77.83;76462.03;5034577;28;19913;-70
2022/07/15 10:26:27;;;;;;;;;;;;;;;-142.75;75.20;76410.84;5034751;28;19913;-71
2022/07/15 10:28:55;;;;;;;;;;;;;;;-142.75;72.05;76381.31;5034354;28;19920;-71
2022/07/15 10:31:22;;;;;;;;;;;;;;;-142.75;74.40;76310.47;5034549;28;19923;-70
2022/07/15 10:34:03;;;;;;;;;;;;;;;-142.75;66.86;76284.88;5016623;28;20337;-71
2022/07/15 10:36:46;;;;;;;;;;;;;;;-142.75;67.97;76233.69;5034452;28;19924;-70
2022/07/15 10:39:12;;;;;;;;;;;;;;;-142.75;65.62;76206.13;5034116;28;19913;-71
2022/07/15 10:41:52;;;;;;;;;;;;;;;-142.75;65.42;76278.97;5016502;28;19914;-72
2022/07/15 10:44:18;;;;;;;;;;;;;;;-142.75;67.62;76302.59;5034234;28;20375;-71
2022/07/15 10:46:44;;;;;;;;;;;;;;;-142.75;69.49;76233.69;5034196;28;19913;-71
2022/07/15 10:49:09;;;;;;;;;;;;;;;-142.75;68.07;76168.75;5033919;28;19963;-71
2022/07/15 10:51:37;;;;;;;;;;;;;;;-142.75;64.29;76119.53;5016286;28;19959;-71
2022/07/15 10:54:03;;;;;;;;;;;;;;;-142.75;65.00;76131.34;5034112;28;19917;-71
2022/07/15 10:56:34;;;;;;;;;;;;;;;-142.75;64.00;76145.13;5016313;28;19913;-71
2022/07/15 10:59:13;;;;;;;;;;;;;;;-142.75;64.15;76200.25;5033734;28;20322;-70
2022/07/15 11:01:39;;;;;;;;;;;;;;;-142.75;65.34;76282.91;5033975;28;20295;-71
2022/07/15 11:04:11;;;;;;;;;;;;;;;-142.75;67.97;76389.19;5033951;28;19913;-71
2022/07/15 11:06:54;;;;;;;;;;;;;;;-142.75;69.72;76399.03;5033930;28;19921;-71
2022/07/15 11:09:38;;;;;;;;;;;;;;;-142.75;71.59;76375.41;5033561;28;20478;-71
2022/07/15 11:12:04;;;;;;;;;;;;;;;-142.75;68.51;76383.28;5033645;28;19913;-71
2022/07/15 11:14:44;;;;;;;;;;;;;;;-142.75;67.91;76334.09;5033598;28;20015;-71
2022/07/15 11:17:10;;;;;;;;;;;;;;;-142.75;66.50;76263.22;5033690;28;19913;-71
2022/07/15 11:19:36;;;;;;;;;;;;;;;-142.75;64.42;76208.09;5033335;28;19913;-71
2022/07/15 11:22:01;;;;;;;;;;;;;;;-142.75;65.01;76237.63;5032884;28;19913;-72
2022/07/15 11:24:27;;;;;;;;;;;;;;;-142.75;66.48;76192.38;5015847;28;19924;-71
2022/07/15 11:26:52;;;;;;;;;;;;;;;-142.75;63.21;76160.88;5015966;28;19913;-72
2022/07/15 11:29:18;;;;;;;;;;;;;;;-142.75;63.74;76190.41;5015361;28;20004;-72
2022/07/15 11:31:43;;;;;;;;;;;;;;;-142.75;64.29;76145.13;5033195;28;19914;-72
2022/07/15 11:34:08;;;;;;;;;;;;;;;-142.75;64.43;76103.78;5033334;28;20382;-72
2022/07/15 11:36:33;;;;;;;;;;;;;;;-142.75;62.98;76093.94;5033259;28;19913;-72
2022/07/15 11:38:58;;;;;;;;;;;;;;;-142.75;64.17;76050.66;5032970;28;20526;-72
2022/07/15 11:46:53;;;;;;;;;;;;;;;-142.75;62.43;76210.06;5033440;28;19959;-72
2022/07/15 11:49:44;;;;;;;;;;;;;;;-142.75;62.59;76217.94;5014915;28;19936;-72
2022/07/15 11:52:11;;;;;;;;;;;;;;;-142.75;63.54;76158.91;5033083;28;19920;-72
2022/07/15 11:54:40;;;;;;;;;;;;;;;-142.75;61.59;76141.19;5032854;28;20059;-72
2022/07/15 11:57:07;;;;;;;;;;;;;;;-142.75;61.93;76123.47;5032896;28;19913;-72
2022/07/15 11:59:33;;;;;;;;;;;;;;;-142.75;61.70;76078.19;5032553;28;19917;-71
2022/07/15 12:02:06;;;;;;;;;;;;;;;-142.75;61.93;76090.00;5032800;28;19913;-71
2022/07/15 12:04:31;;;;;;;;;;;;;;;-142.75;60.57;76113.63;5032767;28;20413;-72
2022/07/15 12:06:57;;;;;;;;;;;;;;;-142.75;59.98;76060.50;5032578;28;19913;-71
2022/07/15 12:09:23;;;;;;;;;;;;;;;-142.75;59.71;76019.16;5032389;28;19948;-71
2022/07/15 12:11:48;;;;;;;;;;;;;;;-142.75;56.76;75995.53;5032569;28;19971;-72
2022/07/15 12:14:18;;;;;;;;;;;;;;;-142.75;58.20;75979.78;5032460;28;19917;-72
2022/07/15 12:16:44;;;;;;;;;;;;;;;-142.75;58.70;75952.25;5014868;28;20007;-71
2022/07/15 12:19:15;;;;;;;;;;;;;;;-142.75;58.48;76021.13;5032252;28;19944;-70
2022/07/15 12:21:41;;;;;;;;;;;;;;;-142.75;63.29;75993.56;5032502;28;19924;-69
2022/07/15 12:24:08;;;;;;;;;;;;;;;-142.75;61.06;75977.81;5032494;28;20000;-71
2022/07/15 12:26:35;;;;;;;;;;;;;;;-142.75;64.04;75958.16;5032415;28;19921;-69